Terminal Aerodrome Forecast
Issued by NWS Corpus Christi, TX

Home | Current Version | Previous Version | Text Only | Print | Product List | Glossary On
Versions: 1 2 3 4 5 6 7 8 9 10 11 12 13 14 15
000
FTUS44 KCRP 292300
TAFCRP
TAF
KCRP 292332Z 3000/3024 12012G20KT P6SM FEW040
     FM300200 15006KT P6SM SCT250
      TEMPO 3010/3013 5SM BR SCT005
     FM301600 16015KT P6SM SCT035
     FM301800 14015G25KT P6SM SCT045=

USA.gov is the U.S. government's official web portal to all federal, state and local government web resources and services.